createdAt,value
2023-01-29T00:00:22.434Z,65.90
2023-01-29T00:02:49.357Z,65.80
2023-01-29T00:05:27.562Z,65.90
2023-01-29T00:07:56.396Z,66.00
2023-01-29T00:10:24.997Z,66.00
2023-01-29T00:12:51.971Z,66.00
2023-01-29T00:15:19.055Z,66.20
2023-01-29T00:17:45.820Z,66.30
2023-01-29T00:20:13.065Z,66.30
2023-01-29T00:22:39.869Z,66.20
2023-01-29T00:25:07.351Z,66.40
2023-01-29T00:27:34.253Z,66.30
2023-01-29T00:30:09.286Z,66.20
2023-01-29T00:32:36.249Z,66.50
2023-01-29T00:35:03.528Z,66.40
2023-01-29T00:37:30.660Z,66.50
2023-01-29T00:39:57.818Z,66.60
2023-01-29T00:42:43.948Z,66.80
2023-01-29T00:45:11.981Z,66.90
2023-01-29T00:47:38.851Z,67.00
2023-01-29T00:50:08.493Z,66.90
2023-01-29T00:52:36.738Z,66.90
2023-01-29T00:55:05.862Z,67.00
2023-01-29T00:57:35.069Z,66.90
2023-01-29T01:00:03.607Z,66.70
2023-01-29T01:02:49.146Z,66.70
2023-01-29T01:05:20.231Z,66.60
2023-01-29T01:07:49.826Z,66.50
2023-01-29T01:10:22.961Z,66.60
2023-01-29T01:12:53.604Z,66.80
2023-01-29T01:15:22.255Z,66.60
2023-01-29T01:17:55.808Z,66.70
2023-01-29T01:20:24.510Z,66.70
2023-01-29T01:22:51.738Z,66.50
2023-01-29T01:25:18.797Z,66.60
2023-01-29T01:27:45.658Z,66.90
2023-01-29T01:30:15.804Z,66.70
2023-01-29T01:32:43.164Z,66.90
2023-01-29T01:35:11.509Z,66.90
2023-01-29T01:37:38.722Z,67.10
2023-01-29T01:40:12.760Z,67.20
2023-01-29T01:42:40.249Z,67.40
2023-01-29T01:45:18.723Z,67.20
2023-01-29T01:47:49.139Z,67.00
2023-01-29T01:50:22.051Z,67.10
2023-01-29T01:52:55.222Z,67.30
2023-01-29T01:55:26.296Z,67.40
2023-01-29T01:58:03.016Z,67.40
2023-01-29T02:00:29.849Z,67.30
2023-01-29T02:03:14.961Z,67.10
2023-01-29T02:06:00.796Z,67.30
2023-01-29T02:08:57.818Z,67.40
2023-01-29T02:11:25.203Z,67.60
2023-01-29T02:13:53.603Z,67.80
2023-01-29T02:16:25.813Z,67.90
2023-01-29T02:18:53.260Z,67.90
2023-01-29T02:21:41.820Z,67.90
2023-01-29T02:25:09.998Z,67.90
2023-01-29T02:28:06.578Z,67.80
2023-01-29T02:30:51.900Z,68.10
2023-01-29T02:33:43.631Z,68.30
2023-01-29T02:36:25.780Z,68.50
2023-01-29T02:39:12.259Z,68.60
2023-01-29T02:42:11.581Z,68.50
2023-01-29T02:44:43.863Z,68.40
2023-01-29T02:47:48.162Z,68.30
2023-01-29T02:50:26.256Z,68.20
2023-01-29T02:53:00.266Z,67.90
2023-01-29T02:55:42.410Z,68.00
2023-01-29T02:58:20.502Z,68.00
2023-01-29T03:00:49.185Z,68.10
2023-01-29T03:03:25.197Z,68.00
2023-01-29T03:06:20.673Z,67.70
2023-01-29T03:08:57.948Z,67.60
2023-01-29T03:11:30.017Z,67.60
2023-01-29T03:14:03.154Z,67.50
2023-01-29T03:16:42.565Z,67.60
2023-01-29T03:19:16.294Z,67.50
2023-01-29T03:22:00.038Z,67.60
2023-01-29T03:25:12.356Z,67.50
2023-01-29T03:28:15.663Z,67.40
2023-01-29T03:31:18.537Z,67.50
2023-01-29T03:33:54.881Z,67.50
2023-01-29T03:36:39.707Z,67.40
2023-01-29T03:39:09.049Z,67.30
2023-01-29T03:41:53.257Z,67.30
2023-01-29T03:44:37.174Z,67.10
2023-01-29T03:47:13.813Z,67.20
2023-01-29T03:49:53.807Z,67.10
2023-01-29T03:52:25.220Z,67.00
2023-01-29T03:55:10.761Z,67.30
2023-01-29T03:57:45.577Z,67.40
2023-01-29T04:00:27.843Z,67.50
2023-01-29T04:03:23.119Z,67.50
2023-01-29T04:06:14.747Z,67.30
2023-01-29T04:09:03.213Z,67.50
2023-01-29T04:11:34.032Z,67.50
2023-01-29T04:14:01.301Z,67.50
2023-01-29T04:16:36.708Z,67.60
2023-01-29T04:19:20.563Z,67.60
2023-01-29T04:21:50.549Z,67.60
2023-01-29T04:24:17.705Z,67.60
2023-01-29T04:27:03.542Z,67.50
2023-01-29T04:29:51.998Z,67.30
2023-01-29T04:32:28.255Z,67.40
2023-01-29T04:35:17.788Z,67.40
2023-01-29T04:37:56.939Z,67.30
2023-01-29T04:40:33.654Z,67.30
2023-01-29T04:43:08.048Z,67.40
2023-01-29T04:45:50.152Z,67.40
2023-01-29T04:48:25.648Z,67.30
2023-01-29T04:51:16.649Z,67.30
2023-01-29T04:53:55.779Z,67.30
2023-01-29T04:56:47.929Z,67.20
2023-01-29T04:59:20.897Z,67.40
2023-01-29T05:01:48.916Z,67.20
2023-01-29T05:04:19.655Z,67.10
2023-01-29T05:06:47.335Z,67.10
2023-01-29T05:09:16.406Z,67.00
2023-01-29T05:11:47.722Z,66.90
2023-01-29T05:14:17.402Z,66.90
2023-01-29T05:16:51.241Z,67.00
2023-01-29T05:19:18.092Z,66.90
2023-01-29T05:21:47.889Z,67.00
2023-01-29T05:24:16.551Z,66.90
2023-01-29T05:27:03.740Z,66.90
2023-01-29T05:29:30.545Z,67.00
2023-01-29T05:31:57.406Z,67.10
2023-01-29T05:34:24.204Z,67.10
2023-01-29T05:36:51.121Z,67.10
2023-01-29T05:39:18.070Z,67.10
2023-01-29T05:41:44.797Z,67.00
2023-01-29T05:44:11.652Z,67.10
2023-01-29T05:46:38.926Z,67.10
2023-01-29T05:49:06.371Z,67.10
2023-01-29T05:51:33.118Z,67.00
2023-01-29T05:53:59.879Z,66.60
2023-01-29T05:56:26.670Z,66.70
2023-01-29T05:58:53.428Z,66.70
2023-01-29T06:01:23.679Z,66.70
2023-01-29T06:03:50.602Z,66.80
2023-01-29T06:06:17.979Z,66.70
2023-01-29T06:08:44.748Z,66.70
2023-01-29T06:11:13.820Z,66.70
2023-01-29T06:13:40.995Z,66.60
2023-01-29T06:16:08.912Z,66.70
2023-01-29T06:18:36.527Z,66.70
2023-01-29T06:21:05.295Z,66.80
2023-01-29T06:23:32.403Z,66.90
2023-01-29T06:26:04.142Z,66.80
2023-01-29T06:28:31.597Z,66.80
2023-01-29T06:31:12.012Z,66.80
2023-01-29T06:33:47.152Z,66.70
2023-01-29T06:36:13.897Z,66.70
2023-01-29T06:38:40.836Z,66.70
2023-01-29T06:41:12.475Z,66.70
2023-01-29T06:43:39.770Z,66.70
2023-01-29T06:46:08.287Z,66.60
2023-01-29T06:48:35.632Z,66.40
2023-01-29T06:51:04.300Z,66.40
2023-01-29T06:53:31.773Z,66.40
2023-01-29T06:55:58.596Z,66.50
2023-01-29T06:58:25.823Z,66.40
2023-01-29T07:00:52.738Z,66.20
2023-01-29T07:03:19.518Z,66.10
2023-01-29T07:05:52.993Z,66.30
2023-01-29T07:08:22.600Z,66.40
2023-01-29T07:10:50.451Z,66.50
2023-01-29T07:13:17.358Z,66.30
2023-01-29T07:15:44.649Z,66.40
2023-01-29T07:18:14.277Z,66.40
2023-01-29T07:20:41.980Z,66.50
2023-01-29T07:23:15.347Z,66.40
2023-01-29T07:25:42.150Z,66.60
2023-01-29T07:28:09.121Z,66.50
2023-01-29T07:30:36.408Z,66.40
2023-01-29T07:33:07.416Z,66.40
2023-01-29T07:35:39.825Z,66.30
2023-01-29T07:38:07.677Z,66.30
2023-01-29T07:40:34.450Z,66.10
2023-01-29T07:43:05.327Z,66.30
2023-01-29T07:45:38.366Z,66.30
2023-01-29T07:48:06.313Z,66.40
2023-01-29T07:50:34.805Z,66.40
2023-01-29T07:53:01.988Z,66.40
2023-01-29T07:55:28.766Z,66.40
2023-01-29T07:58:01.074Z,66.40
2023-01-29T08:00:28.989Z,66.60
2023-01-29T08:03:05.543Z,66.40
2023-01-29T08:05:32.777Z,66.20
2023-01-29T08:08:06.547Z,66.10
2023-01-29T08:10:34.908Z,66.10
2023-01-29T08:13:03.169Z,66.10
2023-01-29T08:15:30.338Z,66.20
2023-01-29T08:20:44.736Z,66.00
2023-01-29T08:23:15.076Z,66.00
2023-01-29T08:25:42.137Z,66.10
2023-01-29T08:28:09.795Z,66.10
2023-01-29T08:30:37.875Z,66.10
2023-01-29T08:33:05.111Z,66.20
2023-01-29T08:35:32.040Z,66.10
2023-01-29T08:38:00.744Z,66.10
2023-01-29T08:40:36.738Z,66.00
2023-01-29T08:43:09.205Z,66.10
2023-01-29T08:45:39.853Z,66.20
2023-01-29T08:48:07.083Z,66.20
2023-01-29T08:50:35.073Z,66.20
2023-01-29T08:53:04.403Z,66.10
2023-01-29T08:55:31.129Z,66.20
2023-01-29T08:57:57.864Z,66.20
2023-01-29T09:00:24.938Z,66.20
2023-01-29T09:02:51.674Z,66.10
2023-01-29T09:05:18.964Z,66.30
2023-01-29T09:07:46.001Z,66.30
2023-01-29T09:10:13.379Z,66.40
2023-01-29T09:12:40.349Z,66.30
2023-01-29T09:15:07.736Z,66.10
2023-01-29T09:17:34.682Z,66.10
2023-01-29T09:20:01.422Z,66.30
2023-01-29T09:22:30.015Z,66.10
2023-01-29T09:24:56.788Z,66.20
2023-01-29T09:27:23.688Z,66.30
2023-01-29T09:29:50.512Z,66.30
2023-01-29T09:32:37.622Z,66.30
2023-01-29T09:35:04.633Z,66.40
2023-01-29T09:37:32.526Z,66.20
2023-01-29T09:39:59.378Z,66.30
2023-01-29T09:42:39.199Z,66.10
2023-01-29T09:45:09.743Z,65.50
2023-01-29T09:47:37.288Z,65.70
2023-01-29T09:50:13.625Z,65.70
2023-01-29T09:52:54.247Z,65.50
2023-01-29T09:55:32.492Z,65.60
2023-01-29T09:58:18.466Z,65.50
2023-01-29T10:01:08.838Z,65.60
2023-01-29T10:03:51.136Z,65.50
2023-01-29T10:06:48.209Z,65.50
2023-01-29T10:09:27.058Z,65.50
2023-01-29T10:12:32.927Z,65.40
2023-01-29T10:15:18.078Z,65.20
2023-01-29T10:17:53.104Z,65.50
2023-01-29T10:20:52.872Z,65.30
2023-01-29T10:23:30.249Z,65.20
2023-01-29T10:25:57.124Z,65.20
2023-01-29T10:28:45.885Z,65.00
2023-01-29T10:31:33.223Z,65.00
2023-01-29T10:34:07.294Z,65.00
2023-01-29T10:36:47.936Z,64.90
2023-01-29T10:39:18.870Z,64.70
2023-01-29T10:41:56.239Z,64.60
2023-01-29T10:45:07.432Z,64.60
2023-01-29T10:48:04.374Z,64.80
2023-01-29T10:50:47.156Z,64.70
2023-01-29T10:53:33.381Z,65.00
2023-01-29T10:56:32.718Z,65.00
2023-01-29T10:59:05.391Z,65.10
2023-01-29T11:01:32.232Z,64.80
2023-01-29T11:04:03.164Z,64.80
2023-01-29T11:06:32.736Z,64.90
2023-01-29T11:09:38.636Z,65.00
2023-01-29T11:12:05.601Z,65.00
2023-01-29T11:15:16.084Z,65.10
2023-01-29T11:18:05.761Z,65.10
2023-01-29T11:20:33.948Z,66.00
2023-01-29T11:23:00.765Z,65.30
2023-01-29T11:25:29.813Z,65.30
2023-01-29T11:28:00.561Z,65.20
2023-01-29T11:30:39.182Z,65.00
2023-01-29T11:33:23.787Z,65.20
2023-01-29T11:35:52.630Z,65.40
2023-01-29T11:38:22.714Z,65.30
2023-01-29T11:40:49.981Z,65.30
2023-01-29T11:43:28.111Z,65.30
2023-01-29T11:45:58.512Z,65.20
2023-01-29T11:48:51.443Z,65.30
2023-01-29T11:51:28.299Z,65.20
2023-01-29T11:54:01.949Z,65.10
2023-01-29T11:56:39.809Z,64.90
2023-01-29T11:59:15.784Z,64.90
2023-01-29T12:01:42.761Z,65.00
2023-01-29T12:04:27.849Z,64.90
2023-01-29T12:06:54.948Z,64.70
2023-01-29T12:09:27.135Z,64.80
2023-01-29T12:11:53.987Z,64.80
2023-01-29T12:14:34.019Z,64.90
2023-01-29T12:17:16.826Z,64.90
2023-01-29T12:19:50.147Z,65.10
2023-01-29T12:22:28.902Z,65.20
2023-01-29T12:25:20.258Z,65.20
2023-01-29T12:27:59.417Z,65.10
2023-01-29T12:30:33.837Z,65.40
2023-01-29T12:33:29.271Z,65.50
2023-01-29T12:36:31.491Z,65.60
2023-01-29T12:38:59.298Z,66.50
2023-01-29T12:41:37.999Z,65.80
2023-01-29T12:44:37.455Z,65.90
2023-01-29T12:47:07.369Z,65.70
2023-01-29T12:49:37.234Z,65.80
2023-01-29T12:52:07.020Z,65.90
2023-01-29T12:54:47.876Z,65.80
2023-01-29T12:57:39.740Z,65.80
2023-01-29T13:00:13.436Z,65.70
2023-01-29T13:03:20.345Z,65.80
2023-01-29T13:06:21.653Z,65.90
2023-01-29T13:08:58.521Z,65.90
2023-01-29T13:11:59.616Z,66.00
2023-01-29T13:14:40.727Z,66.30
2023-01-29T13:17:20.007Z,66.50
2023-01-29T13:19:51.230Z,66.40
2023-01-29T13:22:31.922Z,66.70
2023-01-29T13:25:05.206Z,66.60
2023-01-29T13:27:35.237Z,66.50
2023-01-29T13:30:02.354Z,66.40
2023-01-29T13:32:31.522Z,66.40
2023-01-29T13:35:12.109Z,66.60
2023-01-29T13:37:57.095Z,66.40
2023-01-29T13:40:27.592Z,66.40
2023-01-29T13:42:55.539Z,66.30
2023-01-29T13:45:49.246Z,66.20
2023-01-29T13:48:29.521Z,66.10
2023-01-29T13:51:00.555Z,66.00
2023-01-29T13:53:33.599Z,66.20
2023-01-29T13:56:34.131Z,66.10
2023-01-29T13:59:06.407Z,66.20
2023-01-29T14:01:48.100Z,66.00
2023-01-29T14:04:28.234Z,65.60
2023-01-29T14:06:57.045Z,65.60
2023-01-29T14:09:38.921Z,65.80
2023-01-29T14:12:25.803Z,66.00
2023-01-29T14:14:55.336Z,66.30
2023-01-29T14:17:22.856Z,66.10
2023-01-29T14:19:51.547Z,66.10
2023-01-29T14:22:22.372Z,66.20
2023-01-29T14:24:53.856Z,66.30
2023-01-29T14:27:25.337Z,66.30
2023-01-29T14:29:58.587Z,66.20
2023-01-29T14:32:26.210Z,67.20
2023-01-29T14:35:01.252Z,66.30
2023-01-29T14:37:40.692Z,66.10
2023-01-29T14:40:15.869Z,66.10
2023-01-29T14:43:01.989Z,66.10
2023-01-29T14:45:33.139Z,66.20
2023-01-29T14:48:07.064Z,66.30
2023-01-29T14:50:34.752Z,66.30
2023-01-29T14:53:40.239Z,66.20
2023-01-29T14:56:17.013Z,66.20
2023-01-29T14:58:55.325Z,66.60
2023-01-29T15:01:28.933Z,66.60
2023-01-29T15:04:05.413Z,66.70
2023-01-29T15:06:46.396Z,66.70
2023-01-29T15:09:36.672Z,66.60
2023-01-29T15:12:26.659Z,66.80
2023-01-29T15:15:18.297Z,66.80
2023-01-29T15:17:57.263Z,66.80
2023-01-29T15:20:34.738Z,66.90
2023-01-29T15:23:03.480Z,66.90
2023-01-29T15:25:37.696Z,67.00
2023-01-29T15:28:08.589Z,67.10
2023-01-29T15:30:36.281Z,67.20
2023-01-29T15:33:04.091Z,67.10
2023-01-29T15:35:39.570Z,67.20
2023-01-29T15:38:07.760Z,67.20
2023-01-29T15:40:34.970Z,67.10
2023-01-29T15:43:01.771Z,67.20
2023-01-29T15:45:33.486Z,67.30
2023-01-29T15:48:07.580Z,67.40
2023-01-29T15:50:39.226Z,67.40
2023-01-29T15:53:09.772Z,67.30
2023-01-29T15:55:36.690Z,67.40
2023-01-29T15:58:04.414Z,67.50
2023-01-29T16:00:31.473Z,67.30
2023-01-29T16:03:00.691Z,67.10
2023-01-29T16:05:33.033Z,67.40
2023-01-29T16:08:00.745Z,67.40
2023-01-29T16:10:31.056Z,67.70
2023-01-29T16:12:58.934Z,67.90
2023-01-29T16:15:39.252Z,68.30
2023-01-29T16:18:22.265Z,68.80
2023-01-29T16:20:54.484Z,69.40
2023-01-29T16:23:28.112Z,69.60
2023-01-29T16:26:01.266Z,70.00
2023-01-29T16:28:28.354Z,69.90
2023-01-29T16:31:03.868Z,69.90
2023-01-29T16:33:37.369Z,69.90
2023-01-29T16:36:16.699Z,70.00
2023-01-29T16:38:51.309Z,70.00
2023-01-29T16:41:23.902Z,70.10
2023-01-29T16:43:52.347Z,70.00
2023-01-29T16:46:31.830Z,69.80
2023-01-29T16:48:59.045Z,69.80
2023-01-29T16:51:31.782Z,69.80
2023-01-29T16:54:13.543Z,69.90
2023-01-29T16:56:40.399Z,70.00
2023-01-29T16:59:12.968Z,70.00
2023-01-29T17:01:39.740Z,70.00
2023-01-29T17:04:17.412Z,70.10
2023-01-29T17:06:50.119Z,69.90
2023-01-29T17:09:26.280Z,69.70
2023-01-29T17:11:57.263Z,69.70
2023-01-29T17:14:26.017Z,69.60
2023-01-29T17:17:04.578Z,69.50
2023-01-29T17:19:31.585Z,69.50
2023-01-29T17:21:59.095Z,69.40
2023-01-29T17:24:26.548Z,69.40
2023-01-29T17:26:54.119Z,69.40
2023-01-29T17:29:30.524Z,69.20
2023-01-29T17:31:59.930Z,69.10
2023-01-29T17:34:26.912Z,69.00
2023-01-29T17:36:53.844Z,68.90
2023-01-29T17:39:22.820Z,69.00
2023-01-29T17:41:58.118Z,68.90
2023-01-29T17:44:28.252Z,68.90
2023-01-29T17:46:55.153Z,69.00
2023-01-29T17:49:28.584Z,69.00
2023-01-29T17:51:56.718Z,69.10
2023-01-29T17:54:24.141Z,69.10
2023-01-29T17:56:51.578Z,69.30
2023-01-29T17:59:20.750Z,69.40
2023-01-29T18:01:48.378Z,69.30
2023-01-29T18:04:15.324Z,69.40
2023-01-29T18:06:43.165Z,69.50
2023-01-29T18:09:14.858Z,69.60
2023-01-29T18:11:42.909Z,69.60
2023-01-29T18:14:14.138Z,69.60
2023-01-29T18:16:43.480Z,69.60
2023-01-29T18:19:30.995Z,69.40
2023-01-29T18:21:57.871Z,69.40
2023-01-29T18:24:26.546Z,69.50
2023-01-29T18:26:53.434Z,69.60
2023-01-29T18:29:20.320Z,69.70
2023-01-29T18:31:51.416Z,69.70
2023-01-29T18:34:18.279Z,69.80
2023-01-29T18:36:47.600Z,69.80
2023-01-29T18:39:15.358Z,70.00
2023-01-29T18:41:42.438Z,70.10
2023-01-29T18:44:10.664Z,70.00
2023-01-29T18:46:37.417Z,70.00
2023-01-29T18:49:05.198Z,70.10
2023-01-29T18:51:31.998Z,70.10
2023-01-29T18:53:58.743Z,70.00
2023-01-29T18:56:25.678Z,70.00
2023-01-29T18:58:55.818Z,70.10
2023-01-29T19:01:23.528Z,70.10
2023-01-29T19:03:50.327Z,70.20
2023-01-29T19:06:17.112Z,70.30
2023-01-29T19:08:44.033Z,70.30
2023-01-29T19:11:12.476Z,70.20
2023-01-29T19:13:40.544Z,70.30
2023-01-29T19:16:09.274Z,70.20
2023-01-29T19:18:36.953Z,70.20
2023-01-29T19:21:14.562Z,70.30
2023-01-29T19:23:43.025Z,70.30
2023-01-29T19:26:10.415Z,70.40
2023-01-29T19:28:37.272Z,70.40
2023-01-29T19:31:04.155Z,70.50
2023-01-29T19:33:30.958Z,70.40
2023-01-29T19:35:59.164Z,70.40
2023-01-29T19:38:26.560Z,70.50
2023-01-29T19:40:55.116Z,70.50
2023-01-29T19:43:22.003Z,70.40
2023-01-29T19:45:50.900Z,70.60
2023-01-29T19:48:21.656Z,70.70
2023-01-29T19:50:53.463Z,70.80
2023-01-29T19:53:20.623Z,70.80
2023-01-29T19:55:48.198Z,70.90
2023-01-29T19:58:15.223Z,70.80
2023-01-29T20:00:42.050Z,70.90
2023-01-29T20:03:08.943Z,70.90
2023-01-29T20:05:37.468Z,70.90
2023-01-29T20:08:04.360Z,71.00
2023-01-29T20:10:31.120Z,71.10
2023-01-29T20:12:58.045Z,71.20
2023-01-29T20:15:24.916Z,71.20
2023-01-29T20:17:51.674Z,71.20
2023-01-29T20:20:18.757Z,71.30
2023-01-29T20:22:46.284Z,71.50
2023-01-29T20:25:14.189Z,71.60
2023-01-29T20:27:41.242Z,71.70
2023-01-29T20:30:08.997Z,71.80
2023-01-29T20:32:35.823Z,71.90
2023-01-29T20:35:03.364Z,72.00
2023-01-29T20:37:30.103Z,72.10
2023-01-29T20:39:56.869Z,72.30
2023-01-29T20:42:23.638Z,72.30
2023-01-29T20:44:50.403Z,72.40
2023-01-29T20:47:17.186Z,72.50
2023-01-29T20:49:44.009Z,72.60
2023-01-29T20:52:11.332Z,72.70
2023-01-29T20:54:38.072Z,72.80
2023-01-29T20:57:05.017Z,72.90
2023-01-29T20:59:31.876Z,73.00
2023-01-29T21:01:58.683Z,73.00
2023-01-29T21:04:25.647Z,73.10
2023-01-29T21:06:52.466Z,73.20
2023-01-29T21:09:20.397Z,73.20
2023-01-29T21:11:47.683Z,73.30
2023-01-29T21:14:14.631Z,73.30
2023-01-29T21:16:41.528Z,73.40
2023-01-29T21:19:08.945Z,73.40
2023-01-29T21:21:35.702Z,73.40
2023-01-29T21:24:02.476Z,73.40
2023-01-29T21:26:29.314Z,73.40
2023-01-29T21:28:56.118Z,73.60
2023-01-29T21:31:23.116Z,73.50
2023-01-29T21:33:50.041Z,73.60
2023-01-29T21:36:16.919Z,73.60
2023-01-29T21:38:43.747Z,73.70
2023-01-29T21:41:10.734Z,73.70
2023-01-29T21:43:38.146Z,73.70
2023-01-29T21:46:13.460Z,73.70
2023-01-29T21:48:40.844Z,73.80
2023-01-29T21:51:08.028Z,73.80
2023-01-29T21:53:34.983Z,73.80
2023-01-29T21:56:03.862Z,73.90
2023-01-29T21:58:31.040Z,74.00
2023-01-29T22:01:36.000Z,74.10
2023-01-29T22:03:47.062Z,74.20
2023-01-29T22:06:14.517Z,74.20
2023-01-29T22:08:41.323Z,74.30
2023-01-29T22:11:08.321Z,74.40
2023-01-29T22:13:35.301Z,74.60
2023-01-29T22:16:02.151Z,74.60
2023-01-29T22:18:28.924Z,74.70
2023-01-29T22:20:56.581Z,74.80
2023-01-29T22:23:23.986Z,74.90
2023-01-29T22:25:50.785Z,74.90
2023-01-29T22:28:18.424Z,74.90
2023-01-29T22:30:45.514Z,75.00
2023-01-29T22:33:12.617Z,75.10
2023-01-29T22:35:39.494Z,75.10
2023-01-29T22:38:06.562Z,75.20
2023-01-29T22:40:33.370Z,75.20
2023-01-29T22:43:00.134Z,75.30
2023-01-29T22:45:27.310Z,75.50
2023-01-29T22:47:54.062Z,75.50
2023-01-29T22:50:21.014Z,75.60
2023-01-29T22:52:53.930Z,75.80
2023-01-29T22:55:20.989Z,75.90
2023-01-29T22:57:53.334Z,76.00
2023-01-29T23:00:20.568Z,76.00
2023-01-29T23:02:47.841Z,76.00
2023-01-29T23:05:14.759Z,76.10
2023-01-29T23:07:41.590Z,76.10
2023-01-29T23:10:10.137Z,76.10
2023-01-29T23:12:37.555Z,76.10
2023-01-29T23:15:05.144Z,76.20
2023-01-29T23:17:31.953Z,76.20
2023-01-29T23:19:58.774Z,76.10
2023-01-29T23:22:25.571Z,76.20
2023-01-29T23:24:52.804Z,76.20
2023-01-29T23:27:20.094Z,76.30
2023-01-29T23:29:48.402Z,76.30
2023-01-29T23:32:19.599Z,76.30
2023-01-29T23:34:46.593Z,76.40
2023-01-29T23:37:13.917Z,76.40
2023-01-29T23:39:40.668Z,76.40
2023-01-29T23:42:07.442Z,76.50
2023-01-29T23:44:34.191Z,76.40
2023-01-29T23:47:01.325Z,76.40
2023-01-29T23:49:28.098Z,76.50
2023-01-29T23:51:54.900Z,76.50
2023-01-29T23:54:21.658Z,76.50
2023-01-29T23:56:48.632Z,76.60
2023-01-29T23:59:16.036Z,76.60
